sensor_id;sensor_type;location;lat;lon;timestamp;temperature;humidity
17442;DHT22;8838;50.144;8.176;2022-07-29T00:01:08;16.60;99.90
17442;DHT22;8838;50.144;8.176;2022-07-29T00:03:35;16.50;99.90
17442;DHT22;8838;50.144;8.176;2022-07-29T00:06:03;16.50;99.90
17442;DHT22;8838;50.144;8.176;2022-07-29T00:08:30;16.60;99.90
17442;DHT22;8838;50.144;8.176;2022-07-29T00:10:57;16.60;99.90
17442;DHT22;8838;50.144;8.176;2022-07-29T00:13:23;16.60;99.90
17442;DHT22;8838;50.144;8.176;2022-07-29T00:15:50;16.60;99.90
17442;DHT22;8838;50.144;8.176;2022-07-29T00:18:17;16.50;99.90
17442;DHT22;8838;50.144;8.176;2022-07-29T00:20:44;16.50;99.90
17442;DHT22;8838;50.144;8.176;2022-07-29T00:23:12;16.50;99.90
17442;DHT22;8838;50.144;8.176;2022-07-29T00:25:39;16.60;99.90
17442;DHT22;8838;50.144;8.176;2022-07-29T00:28:06;16.60;99.90
17442;DHT22;8838;50.144;8.176;2022-07-29T00:30:33;16.50;99.90
17442;DHT22;8838;50.144;8.176;2022-07-29T00:32:59;16.50;99.90
17442;DHT22;8838;50.144;8.176;2022-07-29T00:35:26;16.60;99.90
17442;DHT22;8838;50.144;8.176;2022-07-29T00:38:12;16.50;99.90
17442;DHT22;8838;50.144;8.176;2022-07-29T00:40:40;16.50;99.90
17442;DHT22;8838;50.144;8.176;2022-07-29T00:43:07;16.50;99.90
17442;DHT22;8838;50.144;8.176;2022-07-29T00:45:35;16.60;99.90
17442;DHT22;8838;50.144;8.176;2022-07-29T00:48:03;16.60;99.90
17442;DHT22;8838;50.144;8.176;2022-07-29T00:50:30;16.50;99.90
17442;DHT22;8838;50.144;8.176;2022-07-29T00:52:58;16.50;99.90
17442;DHT22;8838;50.144;8.176;2022-07-29T00:55:27;16.50;99.90
17442;DHT22;8838;50.144;8.176;2022-07-29T00:57:57;16.50;99.90
17442;DHT22;8838;50.144;8.176;2022-07-29T01:00:25;16.50;99.90
17442;DHT22;8838;50.144;8.176;2022-07-29T01:02:52;16.40;99.90
17442;DHT22;8838;50.144;8.176;2022-07-29T01:05:21;16.30;99.90
17442;DHT22;8838;50.144;8.176;2022-07-29T01:07:52;16.30;99.90
17442;DHT22;8838;50.144;8.176;2022-07-29T01:10:20;16.20;99.90
17442;DHT22;8838;50.144;8.176;2022-07-29T01:12:51;16.20;99.90
17442;DHT22;8838;50.144;8.176;2022-07-29T01:15:18;16.20;99.90
17442;DHT22;8838;50.144;8.176;2022-07-29T01:17:50;16.10;99.90
17442;DHT22;8838;50.144;8.176;2022-07-29T01:20:23;16.10;99.90
17442;DHT22;8838;50.144;8.176;2022-07-29T01:23:21;16.10;99.90
17442;DHT22;8838;50.144;8.176;2022-07-29T01:26:21;16.20;99.90
17442;DHT22;8838;50.144;8.176;2022-07-29T01:29:01;16.20;99.90
17442;DHT22;8838;50.144;8.176;2022-07-29T01:31:33;16.00;99.90
17442;DHT22;8838;50.144;8.176;2022-07-29T01:34:05;16.00;99.90
17442;DHT22;8838;50.144;8.176;2022-07-29T01:36:36;15.90;99.90
17442;DHT22;8838;50.144;8.176;2022-07-29T01:39:08;15.70;99.90
17442;DHT22;8838;50.144;8.176;2022-07-29T01:41:40;15.80;99.90
17442;DHT22;8838;50.144;8.176;2022-07-29T01:44:16;15.90;99.90
17442;DHT22;8838;50.144;8.176;2022-07-29T01:46:49;15.80;99.90
17442;DHT22;8838;50.144;8.176;2022-07-29T01:49:20;15.70;99.90
17442;DHT22;8838;50.144;8.176;2022-07-29T01:51:50;15.50;99.90
17442;DHT22;8838;50.144;8.176;2022-07-29T01:54:21;15.60;99.90
17442;DHT22;8838;50.144;8.176;2022-07-29T01:56:53;15.70;99.90
17442;DHT22;8838;50.144;8.176;2022-07-29T01:59:21;15.80;99.90
17442;DHT22;8838;50.144;8.176;2022-07-29T02:01:52;15.60;99.90
17442;DHT22;8838;50.144;8.176;2022-07-29T02:04:20;15.60;99.90
17442;DHT22;8838;50.144;8.176;2022-07-29T02:06:49;15.60;99.90
17442;DHT22;8838;50.144;8.176;2022-07-29T02:09:17;15.60;99.90
17442;DHT22;8838;50.144;8.176;2022-07-29T02:11:49;15.60;99.90
17442;DHT22;8838;50.144;8.176;2022-07-29T02:14:18;15.60;99.90
17442;DHT22;8838;50.144;8.176;2022-07-29T02:16:53;15.70;99.90
17442;DHT22;8838;50.144;8.176;2022-07-29T02:19:21;15.70;99.90
17442;DHT22;8838;50.144;8.176;2022-07-29T02:21:51;15.80;99.90
17442;DHT22;8838;50.144;8.176;2022-07-29T02:24:20;15.90;99.90
17442;DHT22;8838;50.144;8.176;2022-07-29T02:26:49;15.90;99.90
17442;DHT22;8838;50.144;8.176;2022-07-29T02:29:19;15.90;99.90
17442;DHT22;8838;50.144;8.176;2022-07-29T02:31:49;16.00;99.90
17442;DHT22;8838;50.144;8.176;2022-07-29T02:34:18;15.90;99.90
17442;DHT22;8838;50.144;8.176;2022-07-29T02:36:46;15.80;99.90
17442;DHT22;8838;50.144;8.176;2022-07-29T02:39:15;15.70;99.90
17442;DHT22;8838;50.144;8.176;2022-07-29T02:41:44;15.60;99.90
17442;DHT22;8838;50.144;8.176;2022-07-29T02:44:13;15.70;99.90
17442;DHT22;8838;50.144;8.176;2022-07-29T02:46:45;15.70;99.90
17442;DHT22;8838;50.144;8.176;2022-07-29T02:49:18;15.80;99.90
17442;DHT22;8838;50.144;8.176;2022-07-29T02:51:52;15.70;99.90
17442;DHT22;8838;50.144;8.176;2022-07-29T02:54:26;15.60;99.90
17442;DHT22;8838;50.144;8.176;2022-07-29T02:56:57;15.60;99.90
17442;DHT22;8838;50.144;8.176;2022-07-29T02:59:27;15.50;99.90
17442;DHT22;8838;50.144;8.176;2022-07-29T03:01:59;15.40;99.90
17442;DHT22;8838;50.144;8.176;2022-07-29T03:04:28;15.60;99.90
17442;DHT22;8838;50.144;8.176;2022-07-29T03:06:58;15.50;99.90
17442;DHT22;8838;50.144;8.176;2022-07-29T03:09:27;15.50;99.90
17442;DHT22;8838;50.144;8.176;2022-07-29T03:11:56;15.40;99.90
17442;DHT22;8838;50.144;8.176;2022-07-29T03:14:23;15.40;99.90
17442;DHT22;8838;50.144;8.176;2022-07-29T03:16:51;15.40;99.90
17442;DHT22;8838;50.144;8.176;2022-07-29T03:19:19;15.50;99.90
17442;DHT22;8838;50.144;8.176;2022-07-29T03:21:48;15.50;99.90
17442;DHT22;8838;50.144;8.176;2022-07-29T03:24:25;15.50;99.90
17442;DHT22;8838;50.144;8.176;2022-07-29T03:26:52;15.50;99.90
17442;DHT22;8838;50.144;8.176;2022-07-29T03:29:19;15.40;99.90
17442;DHT22;8838;50.144;8.176;2022-07-29T03:31:46;15.30;99.90
17442;DHT22;8838;50.144;8.176;2022-07-29T03:34:13;15.30;99.90
17442;DHT22;8838;50.144;8.176;2022-07-29T03:36:40;15.20;99.90
17442;DHT22;8838;50.144;8.176;2022-07-29T03:39:09;15.10;99.90
17442;DHT22;8838;50.144;8.176;2022-07-29T03:41:38;15.00;99.90
17442;DHT22;8838;50.144;8.176;2022-07-29T03:44:07;14.90;99.90
17442;DHT22;8838;50.144;8.176;2022-07-29T03:46:35;14.80;99.90
17442;DHT22;8838;50.144;8.176;2022-07-29T03:49:04;14.80;99.90
17442;DHT22;8838;50.144;8.176;2022-07-29T03:51:33;14.80;99.90
17442;DHT22;8838;50.144;8.176;2022-07-29T03:54:01;14.90;99.90
17442;DHT22;8838;50.144;8.176;2022-07-29T03:56:32;14.80;99.90
17442;DHT22;8838;50.144;8.176;2022-07-29T03:59:00;14.80;99.90
17442;DHT22;8838;50.144;8.176;2022-07-29T04:01:28;14.80;99.90
17442;DHT22;8838;50.144;8.176;2022-07-29T04:03:55;14.70;99.90
17442;DHT22;8838;50.144;8.176;2022-07-29T04:06:23;14.60;99.90
17442;DHT22;8838;50.144;8.176;2022-07-29T04:08:51;14.70;99.90
17442;DHT22;8838;50.144;8.176;2022-07-29T04:11:18;14.70;99.90
17442;DHT22;8838;50.144;8.176;2022-07-29T04:13:46;14.70;99.90
17442;DHT22;8838;50.144;8.176;2022-07-29T04:16:13;14.70;99.90
17442;DHT22;8838;50.144;8.176;2022-07-29T04:18:40;14.60;99.90
17442;DHT22;8838;50.144;8.176;2022-07-29T04:21:07;14.70;99.90
17442;DHT22;8838;50.144;8.176;2022-07-29T04:23:34;14.70;99.90
17442;DHT22;8838;50.144;8.176;2022-07-29T04:26:01;14.70;99.90
17442;DHT22;8838;50.144;8.176;2022-07-29T04:28:28;14.70;99.90
17442;DHT22;8838;50.144;8.176;2022-07-29T04:30:56;14.60;99.90
17442;DHT22;8838;50.144;8.176;2022-07-29T04:33:23;14.60;99.90
17442;DHT22;8838;50.144;8.176;2022-07-29T04:35:50;14.50;99.90
17442;DHT22;8838;50.144;8.176;2022-07-29T04:38:17;14.50;99.90
17442;DHT22;8838;50.144;8.176;2022-07-29T04:40:43;14.50;99.90
17442;DHT22;8838;50.144;8.176;2022-07-29T04:43:10;14.50;99.90
17442;DHT22;8838;50.144;8.176;2022-07-29T04:45:37;14.60;99.90
17442;DHT22;8838;50.144;8.176;2022-07-29T04:48:05;14.70;99.90
17442;DHT22;8838;50.144;8.176;2022-07-29T04:50:32;14.60;99.90
17442;DHT22;8838;50.144;8.176;2022-07-29T04:52:59;14.50;99.90
17442;DHT22;8838;50.144;8.176;2022-07-29T04:55:26;14.40;99.90
17442;DHT22;8838;50.144;8.176;2022-07-29T04:57:53;14.40;99.90
17442;DHT22;8838;50.144;8.176;2022-07-29T05:00:20;14.50;99.90
17442;DHT22;8838;50.144;8.176;2022-07-29T05:02:48;14.60;99.90
17442;DHT22;8838;50.144;8.176;2022-07-29T05:05:16;14.70;99.90
17442;DHT22;8838;50.144;8.176;2022-07-29T05:07:44;14.70;99.90
17442;DHT22;8838;50.144;8.176;2022-07-29T05:10:10;14.80;99.90
17442;DHT22;8838;50.144;8.176;2022-07-29T05:12:38;14.90;99.90
17442;DHT22;8838;50.144;8.176;2022-07-29T05:15:06;15.00;99.90
17442;DHT22;8838;50.144;8.176;2022-07-29T05:17:32;15.10;99.90
17442;DHT22;8838;50.144;8.176;2022-07-29T05:20:00;15.10;99.90
17442;DHT22;8838;50.144;8.176;2022-07-29T05:22:28;15.10;99.90
17442;DHT22;8838;50.144;8.176;2022-07-29T05:24:55;15.20;99.90
17442;DHT22;8838;50.144;8.176;2022-07-29T05:27:22;15.20;99.90
17442;DHT22;8838;50.144;8.176;2022-07-29T05:29:48;15.30;99.90
17442;DHT22;8838;50.144;8.176;2022-07-29T05:32:15;15.40;99.90
17442;DHT22;8838;50.144;8.176;2022-07-29T05:34:42;15.40;99.90
17442;DHT22;8838;50.144;8.176;2022-07-29T05:37:09;15.50;99.90
17442;DHT22;8838;50.144;8.176;2022-07-29T05:39:37;15.60;99.90
17442;DHT22;8838;50.144;8.176;2022-07-29T05:42:08;15.70;99.90
17442;DHT22;8838;50.144;8.176;2022-07-29T05:44:36;15.70;99.90
17442;DHT22;8838;50.144;8.176;2022-07-29T05:47:03;15.80;99.90
17442;DHT22;8838;50.144;8.176;2022-07-29T05:49:30;15.90;99.90
17442;DHT22;8838;50.144;8.176;2022-07-29T05:51:57;15.90;99.90
17442;DHT22;8838;50.144;8.176;2022-07-29T05:54:23;16.00;99.90
17442;DHT22;8838;50.144;8.176;2022-07-29T05:56:52;16.20;99.90
17442;DHT22;8838;50.144;8.176;2022-07-29T05:59:19;16.30;99.90
17442;DHT22;8838;50.144;8.176;2022-07-29T06:01:46;16.40;99.90
17442;DHT22;8838;50.144;8.176;2022-07-29T06:04:13;16.50;99.90
17442;DHT22;8838;50.144;8.176;2022-07-29T06:06:40;16.50;99.90
17442;DHT22;8838;50.144;8.176;2022-07-29T06:09:07;16.60;99.90
17442;DHT22;8838;50.144;8.176;2022-07-29T06:11:34;16.70;99.90
17442;DHT22;8838;50.144;8.176;2022-07-29T06:14:02;16.90;99.90
17442;DHT22;8838;50.144;8.176;2022-07-29T06:16:29;17.00;99.90
17442;DHT22;8838;50.144;8.176;2022-07-29T06:18:56;17.20;99.90
17442;DHT22;8838;50.144;8.176;2022-07-29T06:21:23;17.30;99.90
17442;DHT22;8838;50.144;8.176;2022-07-29T06:23:50;17.40;99.90
17442;DHT22;8838;50.144;8.176;2022-07-29T06:26:17;17.50;99.90
17442;DHT22;8838;50.144;8.176;2022-07-29T06:28:43;17.60;99.90
17442;DHT22;8838;50.144;8.176;2022-07-29T06:31:11;17.80;99.90
17442;DHT22;8838;50.144;8.176;2022-07-29T06:33:38;18.00;99.90
17442;DHT22;8838;50.144;8.176;2022-07-29T06:36:06;18.30;99.90
17442;DHT22;8838;50.144;8.176;2022-07-29T06:38:33;18.50;99.90
17442;DHT22;8838;50.144;8.176;2022-07-29T06:41:00;18.70;99.90
17442;DHT22;8838;50.144;8.176;2022-07-29T06:43:29;18.80;99.90
17442;DHT22;8838;50.144;8.176;2022-07-29T06:45:58;18.90;99.90
17442;DHT22;8838;50.144;8.176;2022-07-29T06:48:27;19.00;99.90
17442;DHT22;8838;50.144;8.176;2022-07-29T06:50:54;19.20;99.90
17442;DHT22;8838;50.144;8.176;2022-07-29T06:53:21;19.40;99.90
17442;DHT22;8838;50.144;8.176;2022-07-29T06:55:48;19.50;99.90
17442;DHT22;8838;50.144;8.176;2022-07-29T06:58:15;19.60;99.90
17442;DHT22;8838;50.144;8.176;2022-07-29T07:00:43;19.80;99.90
17442;DHT22;8838;50.144;8.176;2022-07-29T07:03:11;20.00;99.90
17442;DHT22;8838;50.144;8.176;2022-07-29T07:05:39;20.10;99.90
17442;DHT22;8838;50.144;8.176;2022-07-29T07:08:06;20.30;99.90
17442;DHT22;8838;50.144;8.176;2022-07-29T07:10:34;20.50;99.90
17442;DHT22;8838;50.144;8.176;2022-07-29T07:13:01;20.80;99.90
17442;DHT22;8838;50.144;8.176;2022-07-29T07:15:28;21.00;99.90
17442;DHT22;8838;50.144;8.176;2022-07-29T07:17:56;21.00;99.90
17442;DHT22;8838;50.144;8.176;2022-07-29T07:20:23;21.00;99.90
17442;DHT22;8838;50.144;8.176;2022-07-29T07:22:51;21.10;99.90
17442;DHT22;8838;50.144;8.176;2022-07-29T07:25:18;21.30;99.90
17442;DHT22;8838;50.144;8.176;2022-07-29T07:27:45;21.30;99.90
17442;DHT22;8838;50.144;8.176;2022-07-29T07:30:12;21.50;99.90
17442;DHT22;8838;50.144;8.176;2022-07-29T07:32:39;21.70;99.90
17442;DHT22;8838;50.144;8.176;2022-07-29T07:35:07;22.10;99.90
17442;DHT22;8838;50.144;8.176;2022-07-29T07:37:35;22.30;99.90
17442;DHT22;8838;50.144;8.176;2022-07-29T07:40:04;22.50;99.90
17442;DHT22;8838;50.144;8.176;2022-07-29T07:42:31;22.80;99.90
17442;DHT22;8838;50.144;8.176;2022-07-29T07:44:58;23.00;99.90
17442;DHT22;8838;50.144;8.176;2022-07-29T07:47:25;23.30;99.90
17442;DHT22;8838;50.144;8.176;2022-07-29T07:49:52;23.70;99.90
17442;DHT22;8838;50.144;8.176;2022-07-29T07:52:21;23.80;99.90
17442;DHT22;8838;50.144;8.176;2022-07-29T07:54:48;24.30;99.90
17442;DHT22;8838;50.144;8.176;2022-07-29T07:57:17;24.80;99.90
17442;DHT22;8838;50.144;8.176;2022-07-29T07:59:44;25.00;99.90
17442;DHT22;8838;50.144;8.176;2022-07-29T08:02:11;25.30;99.90
17442;DHT22;8838;50.144;8.176;2022-07-29T08:04:38;25.20;99.90
17442;DHT22;8838;50.144;8.176;2022-07-29T08:07:06;25.30;99.90
17442;DHT22;8838;50.144;8.176;2022-07-29T08:09:35;25.70;99.90
17442;DHT22;8838;50.144;8.176;2022-07-29T08:12:03;26.00;99.90
17442;DHT22;8838;50.144;8.176;2022-07-29T08:14:32;26.50;99.90
17442;DHT22;8838;50.144;8.176;2022-07-29T08:17:00;27.00;99.90
17442;DHT22;8838;50.144;8.176;2022-07-29T08:19:26;27.40;99.90
17442;DHT22;8838;50.144;8.176;2022-07-29T08:21:54;28.10;99.90
17442;DHT22;8838;50.144;8.176;2022-07-29T08:24:21;28.50;99.90
17442;DHT22;8838;50.144;8.176;2022-07-29T08:27:06;28.80;99.90
17442;DHT22;8838;50.144;8.176;2022-07-29T08:29:34;28.70;99.90
17442;DHT22;8838;50.144;8.176;2022-07-29T08:32:04;28.50;99.90
17442;DHT22;8838;50.144;8.176;2022-07-29T08:34:31;28.40;99.90
17442;DHT22;8838;50.144;8.176;2022-07-29T08:36:58;27.90;99.90
17442;DHT22;8838;50.144;8.176;2022-07-29T08:39:25;27.60;99.90
17442;DHT22;8838;50.144;8.176;2022-07-29T08:41:52;27.00;99.90
17442;DHT22;8838;50.144;8.176;2022-07-29T08:44:20;26.50;99.90
17442;DHT22;8838;50.144;8.176;2022-07-29T08:46:49;26.20;99.90
17442;DHT22;8838;50.144;8.176;2022-07-29T08:49:16;26.00;99.90
17442;DHT22;8838;50.144;8.176;2022-07-29T08:51:43;25.60;99.90
17442;DHT22;8838;50.144;8.176;2022-07-29T08:54:17;25.50;99.90
17442;DHT22;8838;50.144;8.176;2022-07-29T08:56:47;25.30;99.90
17442;DHT22;8838;50.144;8.176;2022-07-29T08:59:14;24.90;99.90
17442;DHT22;8838;50.144;8.176;2022-07-29T09:01:43;25.00;99.90
17442;DHT22;8838;50.144;8.176;2022-07-29T09:04:12;25.10;99.90
17442;DHT22;8838;50.144;8.176;2022-07-29T09:06:43;25.50;99.90
17442;DHT22;8838;50.144;8.176;2022-07-29T09:09:11;26.30;99.90
17442;DHT22;8838;50.144;8.176;2022-07-29T09:11:39;26.90;99.90
17442;DHT22;8838;50.144;8.176;2022-07-29T09:14:07;27.00;99.90
17442;DHT22;8838;50.144;8.176;2022-07-29T09:16:52;27.20;99.90
17442;DHT22;8838;50.144;8.176;2022-07-29T09:19:26;27.60;99.90
17442;DHT22;8838;50.144;8.176;2022-07-29T09:21:54;27.80;99.90
17442;DHT22;8838;50.144;8.176;2022-07-29T09:24:27;27.40;99.90
17442;DHT22;8838;50.144;8.176;2022-07-29T09:26:54;27.00;99.90
17442;DHT22;8838;50.144;8.176;2022-07-29T09:29:22;27.20;99.90
17442;DHT22;8838;50.144;8.176;2022-07-29T09:31:52;28.00;99.90
17442;DHT22;8838;50.144;8.176;2022-07-29T09:34:24;28.40;99.90
17442;DHT22;8838;50.144;8.176;2022-07-29T09:36:53;28.80;99.90
17442;DHT22;8838;50.144;8.176;2022-07-29T09:39:28;28.90;99.90
17442;DHT22;8838;50.144;8.176;2022-07-29T09:41:56;28.50;99.90
17442;DHT22;8838;50.144;8.176;2022-07-29T09:44:24;28.40;99.90
17442;DHT22;8838;50.144;8.176;2022-07-29T09:46:55;28.30;99.90
17442;DHT22;8838;50.144;8.176;2022-07-29T09:49:25;28.20;99.90
17442;DHT22;8838;50.144;8.176;2022-07-29T09:52:05;28.20;99.90
17442;DHT22;8838;50.144;8.176;2022-07-29T09:54:34;28.70;99.90
17442;DHT22;8838;50.144;8.176;2022-07-29T09:57:03;29.70;99.90
17442;DHT22;8838;50.144;8.176;2022-07-29T09:59:31;30.00;99.90
17442;DHT22;8838;50.144;8.176;2022-07-29T10:01:58;30.40;99.90
17442;DHT22;8838;50.144;8.176;2022-07-29T10:04:38;30.10;99.90
17442;DHT22;8838;50.144;8.176;2022-07-29T10:07:05;29.70;99.90
17442;DHT22;8838;50.144;8.176;2022-07-29T10:09:33;29.20;99.90
17442;DHT22;8838;50.144;8.176;2022-07-29T10:12:06;29.60;99.90
17442;DHT22;8838;50.144;8.176;2022-07-29T10:14:35;30.10;99.90
17442;DHT22;8838;50.144;8.176;2022-07-29T10:17:04;30.00;99.90
17442;DHT22;8838;50.144;8.176;2022-07-29T10:19:32;30.00;99.90
17442;DHT22;8838;50.144;8.176;2022-07-29T10:22:03;30.00;99.90
17442;DHT22;8838;50.144;8.176;2022-07-29T10:24:31;30.60;99.90
17442;DHT22;8838;50.144;8.176;2022-07-29T10:26:59;30.90;99.90
17442;DHT22;8838;50.144;8.176;2022-07-29T10:29:27;30.80;99.90
17442;DHT22;8838;50.144;8.176;2022-07-29T10:35:01;30.60;99.90
17442;DHT22;8838;50.144;8.176;2022-07-29T10:37:42;30.60;99.90
17442;DHT22;8838;50.144;8.176;2022-07-29T10:40:22;31.50;99.90
17442;DHT22;8838;50.144;8.176;2022-07-29T10:43:18;32.30;99.90
17442;DHT22;8838;50.144;8.176;2022-07-29T10:45:47;32.60;99.90
17442;DHT22;8838;50.144;8.176;2022-07-29T10:48:15;32.70;99.90
17442;DHT22;8838;50.144;8.176;2022-07-29T10:50:56;32.50;99.90
17442;DHT22;8838;50.144;8.176;2022-07-29T10:53:46;32.20;99.90
17442;DHT22;8838;50.144;8.176;2022-07-29T10:56:23;31.90;99.90
17442;DHT22;8838;50.144;8.176;2022-07-29T10:59:25;31.30;99.90
17442;DHT22;8838;50.144;8.176;2022-07-29T11:01:54;30.60;99.90
17442;DHT22;8838;50.144;8.176;2022-07-29T11:04:58;30.20;99.90
17442;DHT22;8838;50.144;8.176;2022-07-29T11:07:26;30.50;99.90
17442;DHT22;8838;50.144;8.176;2022-07-29T11:10:24;30.70;99.90
17442;DHT22;8838;50.144;8.176;2022-07-29T11:12:51;30.60;99.90
17442;DHT22;8838;50.144;8.176;2022-07-29T11:15:20;31.00;99.90
17442;DHT22;8838;50.144;8.176;2022-07-29T11:18:11;31.20;99.90
17442;DHT22;8838;50.144;8.176;2022-07-29T11:20:41;31.80;99.90
17442;DHT22;8838;50.144;8.176;2022-07-29T11:23:24;32.00;99.90
17442;DHT22;8838;50.144;8.176;2022-07-29T11:26:23;32.60;99.90
17442;DHT22;8838;50.144;8.176;2022-07-29T11:28:54;32.80;99.90
17442;DHT22;8838;50.144;8.176;2022-07-29T11:31:38;32.60;99.40
17442;DHT22;8838;50.144;8.176;2022-07-29T11:34:26;32.90;99.50
17442;DHT22;8838;50.144;8.176;2022-07-29T11:40:18;32.70;99.70
17442;DHT22;8838;50.144;8.176;2022-07-29T11:42:49;33.10;99.60
17442;DHT22;8838;50.144;8.176;2022-07-29T11:45:22;32.80;98.30
17442;DHT22;8838;50.144;8.176;2022-07-29T11:47:53;32.50;98.80
17442;DHT22;8838;50.144;8.176;2022-07-29T11:50:30;32.80;99.20
17442;DHT22;8838;50.144;8.176;2022-07-29T11:52:58;31.90;99.70
17442;DHT22;8838;50.144;8.176;2022-07-29T11:55:25;31.30;99.00
17442;DHT22;8838;50.144;8.176;2022-07-29T11:57:55;30.60;99.90
17442;DHT22;8838;50.144;8.176;2022-07-29T12:00:26;30.20;99.90
17442;DHT22;8838;50.144;8.176;2022-07-29T12:02:54;30.10;99.90
17442;DHT22;8838;50.144;8.176;2022-07-29T12:05:34;30.00;99.90
17442;DHT22;8838;50.144;8.176;2022-07-29T12:08:06;29.60;99.90
17442;DHT22;8838;50.144;8.176;2022-07-29T12:10:33;29.40;99.90
17442;DHT22;8838;50.144;8.176;2022-07-29T12:13:02;28.80;99.90
17442;DHT22;8838;50.144;8.176;2022-07-29T12:15:29;28.40;99.90
17442;DHT22;8838;50.144;8.176;2022-07-29T12:17:56;28.10;99.90
17442;DHT22;8838;50.144;8.176;2022-07-29T12:20:25;27.80;99.90
17442;DHT22;8838;50.144;8.176;2022-07-29T12:22:52;27.60;99.90
17442;DHT22;8838;50.144;8.176;2022-07-29T12:25:20;27.40;99.90
17442;DHT22;8838;50.144;8.176;2022-07-29T12:27:57;27.20;99.90
17442;DHT22;8838;50.144;8.176;2022-07-29T12:30:35;27.00;99.90
17442;DHT22;8838;50.144;8.176;2022-07-29T12:33:10;26.80;99.90
17442;DHT22;8838;50.144;8.176;2022-07-29T12:35:38;26.50;99.90
17442;DHT22;8838;50.144;8.176;2022-07-29T12:38:06;26.10;99.90
17442;DHT22;8838;50.144;8.176;2022-07-29T12:40:33;25.40;99.90
17442;DHT22;8838;50.144;8.176;2022-07-29T12:43:10;24.70;99.90
17442;DHT22;8838;50.144;8.176;2022-07-29T12:45:40;24.30;99.90
17442;DHT22;8838;50.144;8.176;2022-07-29T12:48:09;23.10;99.90
17442;DHT22;8838;50.144;8.176;2022-07-29T12:50:51;21.80;99.90
17442;DHT22;8838;50.144;8.176;2022-07-29T12:53:18;20.40;99.90
17442;DHT22;8838;50.144;8.176;2022-07-29T12:55:47;19.90;99.90
17442;DHT22;8838;50.144;8.176;2022-07-29T12:58:30;19.30;99.90
17442;DHT22;8838;50.144;8.176;2022-07-29T13:01:08;18.80;99.90
17442;DHT22;8838;50.144;8.176;2022-07-29T13:03:50;18.60;99.90
17442;DHT22;8838;50.144;8.176;2022-07-29T13:06:31;18.50;99.90
17442;DHT22;8838;50.144;8.176;2022-07-29T13:09:01;18.20;99.90
17442;DHT22;8838;50.144;8.176;2022-07-29T13:11:29;18.00;99.90
17442;DHT22;8838;50.144;8.176;2022-07-29T13:13:57;17.90;99.90
17442;DHT22;8838;50.144;8.176;2022-07-29T13:16:26;17.80;99.90
17442;DHT22;8838;50.144;8.176;2022-07-29T13:19:04;17.90;99.90
17442;DHT22;8838;50.144;8.176;2022-07-29T13:21:32;17.90;99.90
17442;DHT22;8838;50.144;8.176;2022-07-29T13:23:59;17.90;99.90
17442;DHT22;8838;50.144;8.176;2022-07-29T13:26:25;18.00;99.90
17442;DHT22;8838;50.144;8.176;2022-07-29T13:28:53;18.00;99.90
17442;DHT22;8838;50.144;8.176;2022-07-29T13:31:20;17.70;99.90
17442;DHT22;8838;50.144;8.176;2022-07-29T13:33:48;17.50;99.90
17442;DHT22;8838;50.144;8.176;2022-07-29T13:36:15;17.50;99.90
17442;DHT22;8838;50.144;8.176;2022-07-29T13:38:43;17.30;99.90
17442;DHT22;8838;50.144;8.176;2022-07-29T13:41:09;17.20;99.90
17442;DHT22;8838;50.144;8.176;2022-07-29T13:43:36;17.30;99.90
17442;DHT22;8838;50.144;8.176;2022-07-29T13:46:03;17.40;99.90
17442;DHT22;8838;50.144;8.176;2022-07-29T13:48:30;17.70;99.90
17442;DHT22;8838;50.144;8.176;2022-07-29T13:50:58;17.80;99.90
17442;DHT22;8838;50.144;8.176;2022-07-29T13:53:25;17.90;99.90
17442;DHT22;8838;50.144;8.176;2022-07-29T13:55:53;17.90;99.90
17442;DHT22;8838;50.144;8.176;2022-07-29T13:58:20;18.00;99.90
17442;DHT22;8838;50.144;8.176;2022-07-29T14:00:47;18.10;99.90
17442;DHT22;8838;50.144;8.176;2022-07-29T14:03:14;18.30;99.90
17442;DHT22;8838;50.144;8.176;2022-07-29T14:05:41;18.60;99.90
17442;DHT22;8838;50.144;8.176;2022-07-29T14:08:09;18.90;99.90
17442;DHT22;8838;50.144;8.176;2022-07-29T14:10:36;19.40;99.90
17442;DHT22;8838;50.144;8.176;2022-07-29T14:13:03;19.80;99.90
17442;DHT22;8838;50.144;8.176;2022-07-29T14:15:30;20.10;99.90
17442;DHT22;8838;50.144;8.176;2022-07-29T14:17:57;20.40;99.90
17442;DHT22;8838;50.144;8.176;2022-07-29T14:20:24;20.60;99.90
17442;DHT22;8838;50.144;8.176;2022-07-29T14:22:50;20.40;99.90
17442;DHT22;8838;50.144;8.176;2022-07-29T14:25:19;20.50;99.90
17442;DHT22;8838;50.144;8.176;2022-07-29T14:27:45;20.60;99.90
17442;DHT22;8838;50.144;8.176;2022-07-29T14:30:13;20.80;99.90
17442;DHT22;8838;50.144;8.176;2022-07-29T14:32:40;20.70;99.90
17442;DHT22;8838;50.144;8.176;2022-07-29T14:35:08;20.70;99.90
17442;DHT22;8838;50.144;8.176;2022-07-29T14:37:34;20.50;99.90
17442;DHT22;8838;50.144;8.176;2022-07-29T14:40:02;20.50;99.90
17442;DHT22;8838;50.144;8.176;2022-07-29T14:42:31;20.50;99.90
17442;DHT22;8838;50.144;8.176;2022-07-29T14:44:58;20.50;99.90
17442;DHT22;8838;50.144;8.176;2022-07-29T14:47:25;20.40;99.90
17442;DHT22;8838;50.144;8.176;2022-07-29T14:49:52;20.10;99.90
17442;DHT22;8838;50.144;8.176;2022-07-29T14:52:18;20.20;99.90
17442;DHT22;8838;50.144;8.176;2022-07-29T14:54:46;20.20;99.90
17442;DHT22;8838;50.144;8.176;2022-07-29T14:57:13;20.20;99.90
17442;DHT22;8838;50.144;8.176;2022-07-29T14:59:41;20.20;99.90
17442;DHT22;8838;50.144;8.176;2022-07-29T15:02:08;20.10;99.90
17442;DHT22;8838;50.144;8.176;2022-07-29T15:04:35;20.10;99.90
17442;DHT22;8838;50.144;8.176;2022-07-29T15:07:02;20.00;99.90
17442;DHT22;8838;50.144;8.176;2022-07-29T15:09:29;20.00;99.90
17442;DHT22;8838;50.144;8.176;2022-07-29T15:11:56;20.00;99.90
17442;DHT22;8838;50.144;8.176;2022-07-29T15:14:23;19.90;99.90
17442;DHT22;8838;50.144;8.176;2022-07-29T15:16:51;19.70;99.90
17442;DHT22;8838;50.144;8.176;2022-07-29T15:19:18;19.70;99.90
17442;DHT22;8838;50.144;8.176;2022-07-29T15:21:46;19.80;99.90
17442;DHT22;8838;50.144;8.176;2022-07-29T15:24:13;19.90;99.90
17442;DHT22;8838;50.144;8.176;2022-07-29T15:26:40;20.00;99.90
17442;DHT22;8838;50.144;8.176;2022-07-29T15:29:07;20.10;99.90
17442;DHT22;8838;50.144;8.176;2022-07-29T15:31:34;20.50;99.90
17442;DHT22;8838;50.144;8.176;2022-07-29T15:34:03;20.70;99.90
17442;DHT22;8838;50.144;8.176;2022-07-29T15:36:30;20.70;99.90
17442;DHT22;8838;50.144;8.176;2022-07-29T15:38:57;20.80;99.90
17442;DHT22;8838;50.144;8.176;2022-07-29T15:41:24;20.80;99.90
17442;DHT22;8838;50.144;8.176;2022-07-29T15:43:51;20.90;99.90
17442;DHT22;8838;50.144;8.176;2022-07-29T15:46:19;20.90;99.90
17442;DHT22;8838;50.144;8.176;2022-07-29T15:49:06;20.80;99.90
17442;DHT22;8838;50.144;8.176;2022-07-29T15:51:33;20.90;99.90
17442;DHT22;8838;50.144;8.176;2022-07-29T15:54:00;21.10;99.90
17442;DHT22;8838;50.144;8.176;2022-07-29T15:56:28;21.10;99.90
17442;DHT22;8838;50.144;8.176;2022-07-29T15:58:55;20.90;99.90
17442;DHT22;8838;50.144;8.176;2022-07-29T16:01:23;21.00;99.90
17442;DHT22;8838;50.144;8.176;2022-07-29T16:03:50;21.10;99.90
17442;DHT22;8838;50.144;8.176;2022-07-29T16:06:18;21.10;99.90